Time;durP1;ratioP1;P1;durP2;ratioP2;P2;SDS_P1;SDS_P2;PMS_P1;PMS_P2;Temp;Humidity;BMP_temperature;BMP_pressure;BME280_temperature;BME280_humidity;BME280_pressure;Samples;Min_cycle;Max_cycle;Signal;HPM_P1;HPM_P2
2022/12/30 00:01:53;;;;;;;22.00;10.80;;;;;;;3.14;100.00;98978.87;104771;1299;23143;-34
2022/12/30 00:04:19;;;;;;;37.50;12.50;;;;;;;3.18;100.00;98977.23;104672;1302;23149;-35
2022/12/30 00:06:44;;;;;;;31.40;12.20;;;;;;;3.19;100.00;98979.01;104882;1289;23028;-30
2022/12/30 00:09:11;;;;;;;33.10;12.60;;;;;;;3.22;100.00;98975.95;104716;1302;24543;-33
2022/12/30 00:11:37;;;;;;;26.80;11.60;;;;;;;3.24;100.00;98978.13;104903;1301;23040;-34
2022/12/30 00:34:34;;;;;;;24.50;9.80;;;;;;;3.79;100.00;98984.81;104843;1292;24291;-33
2022/12/30 00:36:59;;;;;;;27.80;9.30;;;;;;;3.72;100.00;98981.73;104947;1292;22657;-33
2022/12/30 00:39:25;;;;;;;22.40;10.90;;;;;;;3.65;100.00;98973.92;104744;1302;22814;-33
2022/12/30 00:44:20;;;;;;;30.00;12.00;;;;;;;3.68;100.00;98979.14;104737;1292;22570;-29
2022/12/30 00:46:46;;;;;;;17.80;9.70;;;;;;;3.69;100.00;98986.73;104971;1292;24413;-33
2022/12/30 00:56:42;;;;;;;13.40;8.50;;;;;;;3.62;100.00;99014.48;104853;1289;22560;-30
2022/12/30 00:59:08;;;;;;;19.70;10.00;;;;;;;3.60;100.00;99015.81;104738;1302;22692;-29
2022/12/30 01:01:34;;;;;;;18.30;10.20;;;;;;;3.62;100.00;99015.13;104761;1299;25689;-30
2022/12/30 01:04:00;;;;;;;18.20;9.50;;;;;;;3.64;100.00;99018.40;104930;1294;23028;-30
2022/12/30 01:06:25;;;;;;;22.60;12.00;;;;;;;3.69;100.00;99016.56;104943;1301;24284;-33
2022/12/30 01:08:51;;;;;;;19.50;11.80;;;;;;;3.70;100.00;99011.89;104791;1297;22798;-29
2022/12/30 01:11:17;;;;;;;19.70;11.90;;;;;;;3.72;100.00;99016.52;104659;1294;24234;-34
2022/12/30 01:13:44;;;;;;;16.20;9.60;;;;;;;3.70;100.00;99026.63;104745;1302;22777;-34
2022/12/30 01:16:11;;;;;;;26.00;12.60;;;;;;;3.71;100.00;99028.83;104876;1302;24435;-34
2022/12/30 01:18:37;;;;;;;17.30;9.00;;;;;;;3.67;100.00;99031.84;104776;1301;22824;-30
2022/12/30 01:21:03;;;;;;;21.80;10.40;;;;;;;3.63;100.00;99025.71;104891;1292;24541;-34
2022/12/30 01:23:29;;;;;;;22.20;12.70;;;;;;;3.63;100.00;99030.41;104769;1293;24483;-33
2022/12/30 01:25:55;;;;;;;22.90;11.60;;;;;;;3.63;100.00;99034.27;104809;1292;24330;-29
2022/12/30 01:28:21;;;;;;;31.30;13.60;;;;;;;3.58;100.00;99032.66;104926;1291;24311;-30
2022/12/30 01:30:47;;;;;;;18.50;9.80;;;;;;;3.59;100.00;99027.79;104682;1299;24743;-34
2022/12/30 01:33:12;;;;;;;27.20;11.90;;;;;;;3.59;100.00;99033.61;104776;1291;24397;-34
2022/12/30 01:35:38;;;;;;;19.50;9.80;;;;;;;3.58;100.00;99027.89;104714;1300;22792;-29
2022/12/30 01:38:03;;;;;;;21.90;11.70;;;;;;;3.55;100.00;99027.15;104744;1293;22792;-34
2022/12/30 01:40:29;;;;;;;19.50;11.00;;;;;;;3.55;100.00;99023.92;104745;1292;22670;-29
2022/12/30 01:42:55;;;;;;;21.00;10.80;;;;;;;3.54;100.00;99028.80;104696;1301;22560;-30
2022/12/30 01:45:27;;;;;;;22.70;11.20;;;;;;;3.49;100.00;99031.96;104706;1292;24468;-34
2022/12/30 01:48:01;;;;;;;17.80;9.50;;;;;;;3.48;100.00;99030.20;104721;1301;22666;-34
2022/12/30 01:50:32;;;;;;;14.00;8.40;;;;;;;3.44;100.00;99032.14;104843;1292;24544;-33
2022/12/30 01:53:08;;;;;;;22.10;10.30;;;;;;;3.46;100.00;99032.68;104735;1299;22624;-30
2022/12/30 01:55:39;;;;;;;17.10;10.20;;;;;;;3.46;100.00;99029.17;104763;1292;25289;-29
2022/12/30 01:58:13;;;;;;;20.70;12.60;;;;;;;3.43;100.00;99033.30;104827;1299;23041;-33
2022/12/30 02:00:39;;;;;;;30.90;9.00;;;;;;;3.40;100.00;99031.83;104740;1283;23024;-29
2022/12/30 02:03:05;;;;;;;27.30;8.90;;;;;;;3.37;100.00;99025.30;104729;1291;22813;-30
2022/12/30 02:05:31;;;;;;;16.60;10.20;;;;;;;3.33;100.00;99032.80;104845;1292;22688;-30
2022/12/30 02:08:06;;;;;;;22.10;11.20;;;;;;;3.32;100.00;99038.60;104921;1293;24318;-29
2022/12/30 02:10:32;;;;;;;16.50;10.70;;;;;;;3.27;100.00;99041.05;104738;1298;23140;-29
2022/12/30 02:12:59;;;;;;;22.30;12.90;;;;;;;3.29;100.00;99040.52;104709;1302;24411;-33
2022/12/30 02:15:25;;;;;;;16.20;10.10;;;;;;;3.26;100.00;99044.80;104939;1292;25710;-30
2022/12/30 02:18:08;;;;;;;23.90;11.70;;;;;;;3.21;100.00;99045.59;104746;1291;22569;-30
2022/12/30 02:21:06;;;;;;;23.10;11.70;;;;;;;3.20;100.00;99049.36;104693;1301;24349;-33
2022/12/30 02:23:53;;;;;;;25.10;13.00;;;;;;;3.19;100.00;99050.51;104771;1289;24416;-29
2022/12/30 02:26:35;;;;;;;30.90;11.50;;;;;;;3.16;100.00;99049.70;104789;1291;24381;-30
2022/12/30 02:29:24;;;;;;;29.20;12.00;;;;;;;3.19;100.00;99055.64;104769;1288;22553;-35
2022/12/30 02:32:14;;;;;;;22.80;11.40;;;;;;;3.19;100.00;99055.08;104804;1291;23150;-29
2022/12/30 02:34:52;;;;;;;20.40;11.10;;;;;;;3.23;100.00;99047.45;104725;1291;24801;-33
2022/12/30 02:37:40;;;;;;;35.50;10.00;;;;;;;3.29;100.00;99046.63;104750;1292;22800;-29
2022/12/30 02:44:36;;;;;;;22.40;10.60;;;;;;;3.29;100.00;99050.16;104797;1291;22746;-34
2022/12/30 02:45:50;;;;;;;14.40;9.60;;;;;;;3.44;100.00;99051.63;104793;1302;22786;-34
2022/12/30 02:48:20;;;;;;;17.30;10.50;;;;;;;3.43;100.00;99057.61;104634;1302;25260;-30
2022/12/30 02:53:17;;;;;;;21.90;10.80;;;;;;;3.49;100.00;99063.36;104843;1288;22835;-30
2022/12/30 02:55:42;;;;;;;18.80;10.40;;;;;;;3.55;100.00;99064.71;104721;1301;24471;-30
2022/12/30 02:58:08;;;;;;;27.10;12.30;;;;;;;3.58;100.00;99064.66;104757;1292;24497;-30
2022/12/30 03:06:38;;;;;;;13.70;8.60;;;;;;;3.69;100.00;99067.96;104793;1302;25511;-34
2022/12/30 03:09:27;;;;;;;15.70;7.60;;;;;;;3.71;100.00;99072.57;104729;1301;22671;-35
2022/12/30 03:12:24;;;;;;;20.80;8.20;;;;;;;3.72;100.00;99075.40;104736;1302;22808;-29
2022/12/30 03:14:56;;;;;;;12.30;8.80;;;;;;;3.81;100.00;99076.16;104738;1291;22667;-31
2022/12/30 03:17:24;;;;;;;15.70;7.50;;;;;;;3.79;100.00;99076.66;104749;1292;22657;-34
2022/12/30 03:19:52;;;;;;;31.30;9.50;;;;;;;3.87;100.00;99079.94;104769;1291;22663;-35
2022/12/30 03:27:20;;;;;;;15.10;8.40;;;;;;;3.94;100.00;99080.45;104733;1291;22656;-34
2022/12/30 03:29:55;;;;;;;17.60;8.70;;;;;;;3.93;100.00;99075.14;104760;1288;22816;-30
2022/12/30 03:32:21;;;;;;;14.70;7.30;;;;;;;3.92;100.00;99075.66;104758;1291;22838;-30
2022/12/30 03:34:46;;;;;;;30.30;8.80;;;;;;;3.92;100.00;99084.34;104815;1289;23048;-35
2022/12/30 03:37:23;;;;;;;14.70;9.20;;;;;;;4.09;100.00;99088.73;104683;1291;22747;-31
2022/12/30 03:39:56;;;;;;;22.70;11.10;;;;;;;4.29;100.00;99091.25;104622;1294;24419;-31
2022/12/30 03:42:22;;;;;;;16.30;8.30;;;;;;;4.21;100.00;99091.14;104758;1292;25477;-35
2022/12/30 03:44:48;;;;;;;12.80;9.00;;;;;;;4.20;100.00;99089.52;104715;1288;24420;-30
2022/12/30 03:47:14;;;;;;;16.10;9.80;;;;;;;4.32;100.00;99088.41;104799;1292;24316;-31
2022/12/30 03:49:42;;;;;;;13.20;7.00;;;;;;;4.38;100.00;99095.55;104789;1291;22634;-32
2022/12/30 03:52:10;;;;;;;12.90;6.50;;;;;;;4.39;100.00;99108.20;104785;1291;23154;-35
2022/12/30 03:54:36;;;;;;;14.90;9.00;;;;;;;4.34;100.00;99116.95;104801;1292;23121;-35
2022/12/30 03:57:02;;;;;;;12.40;6.90;;;;;;;4.28;100.00;99122.33;104741;1291;23166;-35
2022/12/30 03:59:28;;;;;;;14.10;7.90;;;;;;;4.28;100.00;99133.16;104708;1292;23040;-32
2022/12/30 04:01:53;;;;;;;12.40;6.30;;;;;;;4.28;100.00;99132.66;104672;1301;24291;-31
2022/12/30 04:04:20;;;;;;;11.30;6.10;;;;;;;4.39;100.00;99136.59;104818;1291;22645;-31
2022/12/30 04:06:46;;;;;;;19.40;7.00;;;;;;;4.43;100.00;99148.70;104716;1291;23025;-35
2022/12/30 04:09:12;;;;;;;11.40;5.80;;;;;;;4.49;100.00;99148.16;104688;1295;22672;-35
2022/12/30 04:11:38;;;;;;;27.00;8.50;;;;;;;4.62;100.00;99148.17;104762;1291;24422;-31
2022/12/30 04:14:04;;;;;;;9.70;6.60;;;;;;;4.72;100.00;99151.68;104710;1292;24315;-34
2022/12/30 04:16:30;;;;;;;13.70;6.10;;;;;;;4.78;100.00;99153.65;104749;1292;22644;-30
2022/12/30 04:18:55;;;;;;;8.80;5.10;;;;;;;4.84;100.00;99152.34;104769;1291;22782;-32
2022/12/30 04:21:21;;;;;;;15.10;9.60;;;;;;;4.90;100.00;99151.02;104763;1302;24503;-36
2022/12/30 04:23:47;;;;;;;18.80;6.50;;;;;;;4.96;100.00;99141.06;104864;1291;22609;-36
2022/12/30 04:26:13;;;;;;;14.00;6.00;;;;;;;5.09;99.40;99139.47;104837;1291;24462;-36
2022/12/30 04:28:39;;;;;;;17.20;8.00;;;;;;;4.97;99.88;99135.89;104594;1294;23163;-35
2022/12/30 04:31:04;;;;;;;14.20;7.30;;;;;;;4.81;99.99;99131.92;104789;1292;22664;-35
2022/12/30 04:33:30;;;;;;;12.90;6.80;;;;;;;4.69;100.00;99136.07;104683;1292;22664;-31
2022/12/30 05:14:21;;;;;;;10.70;6.00;;;;;;;4.98;100.00;99197.48;104171;1299;557352;-30
2022/12/30 05:16:49;;;;;;;18.80;9.80;;;;;;;5.12;99.99;99208.21;104162;1295;471814;-29
2022/12/30 05:19:15;;;;;;;20.90;8.70;;;;;;;4.98;100.00;99216.06;104519;1304;22650;-33
2022/12/30 05:21:40;;;;;;;17.20;8.40;;;;;;;4.82;100.00;99223.18;104729;1294;22799;-33
2022/12/30 05:26:38;;;;;;;13.30;6.20;;;;;;;4.89;100.00;99224.19;104555;1292;22560;-29
2022/12/30 05:29:03;;;;;;;8.20;5.80;;;;;;;4.83;100.00;99223.76;104629;1292;22739;-33
2022/12/30 05:31:29;;;;;;;11.90;7.10;;;;;;;4.80;100.00;99226.79;104368;1304;23001;-33
2022/12/30 05:33:55;;;;;;;18.90;8.60;;;;;;;4.89;100.00;99233.79;104703;1293;22660;-29
2022/12/30 05:36:20;;;;;;;10.20;5.40;;;;;;;4.96;100.00;99235.52;104679;1294;22654;-32
2022/12/30 05:38:46;;;;;;;9.40;5.40;;;;;;;5.05;100.00;99237.52;104729;1302;22783;-32
2022/12/30 05:41:12;;;;;;;9.60;4.10;;;;;;;5.08;100.00;99245.52;104688;1293;22801;-29
2022/12/30 05:43:38;;;;;;;13.40;6.20;;;;;;;5.15;100.00;99250.64;104585;1304;24301;-31
2022/12/30 05:46:04;;;;;;;15.60;7.10;;;;;;;5.29;100.00;99253.94;104585;1295;22680;-35
2022/12/30 05:48:29;;;;;;;8.30;5.20;;;;;;;5.30;99.97;99251.81;104651;1295;22801;-31
2022/12/30 05:50:55;;;;;;;11.20;4.10;;;;;;;5.34;99.96;99252.34;104550;1294;24311;-31
2022/12/30 05:53:21;;;;;;;12.00;5.40;;;;;;;5.46;99.67;99255.67;104485;1304;25464;-31
2022/12/30 05:55:46;;;;;;;9.60;4.60;;;;;;;5.45;99.31;99259.67;104553;1292;22885;-31
2022/12/30 05:58:12;;;;;;;7.40;5.00;;;;;;;5.47;99.30;99262.77;104603;1295;22828;-35
2022/12/30 06:00:38;;;;;;;6.90;3.80;;;;;;;5.52;99.25;99264.02;104576;1289;22992;-31
2022/12/30 06:03:05;;;;;;;12.00;5.20;;;;;;;5.53;99.26;99268.89;104652;1304;22510;-35
2022/12/30 06:05:31;;;;;;;4.60;3.50;;;;;;;5.62;98.87;99266.67;104485;1298;22827;-35
2022/12/30 06:07:56;;;;;;;13.80;5.20;;;;;;;5.69;98.43;99270.21;104499;1295;22798;-31
2022/12/30 06:10:22;;;;;;;6.70;2.60;;;;;;;5.82;97.88;99270.85;104617;1295;22666;-31
2022/12/30 06:12:48;;;;;;;6.80;3.70;;;;;;;5.80;97.87;99274.21;104676;1295;23072;-30
2022/12/30 06:15:14;;;;;;;6.20;4.10;;;;;;;5.88;97.66;99277.13;104611;1301;22612;-34
2022/12/30 06:17:39;;;;;;;9.00;3.40;;;;;;;5.94;97.53;99280.25;104779;1289;24323;-34
2022/12/30 06:20:05;;;;;;;3.30;2.20;;;;;;;6.08;96.90;99273.94;104612;1295;23166;-30
2022/12/30 06:22:31;;;;;;;6.90;3.90;;;;;;;6.10;96.70;99280.02;104535;1295;22657;-34
2022/12/30 06:24:57;;;;;;;5.30;3.10;;;;;;;6.17;96.62;99282.54;104591;1304;22639;-34
2022/12/30 06:27:23;;;;;;;6.50;2.60;;;;;;;6.18;96.70;99282.97;104680;1304;23041;-34
2022/12/30 06:29:48;;;;;;;4.60;3.20;;;;;;;6.23;96.36;99280.71;104607;1292;23041;-30
2022/12/30 06:32:14;;;;;;;3.80;2.00;;;;;;;6.28;96.12;99285.35;104611;1295;22786;-34
2022/12/30 06:34:40;;;;;;;4.70;3.40;;;;;;;6.28;96.18;99294.58;104405;1304;22946;-33
2022/12/30 06:37:06;;;;;;;7.30;1.90;;;;;;;6.36;95.84;99292.45;104536;1295;22566;-34
2022/12/30 06:39:32;;;;;;;3.30;2.20;;;;;;;6.45;95.33;99291.74;104591;1295;23028;-34
2022/12/30 06:41:57;;;;;;;3.40;1.80;;;;;;;6.63;94.36;99289.54;104650;1295;22834;-34
2022/12/30 06:44:23;;;;;;;4.80;1.70;;;;;;;6.66;93.67;99297.60;104656;1295;22647;-30
2022/12/30 06:46:49;;;;;;;7.00;1.70;;;;;;;6.72;93.23;99299.02;104568;1295;22576;-29
2022/12/30 06:49:14;;;;;;;2.80;1.90;;;;;;;6.86;92.36;99306.73;104556;1295;22578;-29
2022/12/30 06:51:41;;;;;;;3.20;1.90;;;;;;;6.84;92.30;99317.66;104561;1295;23172;-30
2022/12/30 06:54:06;;;;;;;3.70;1.50;;;;;;;6.82;92.15;99327.24;104574;1294;24435;-29
2022/12/30 06:56:32;;;;;;;4.80;2.60;;;;;;;6.74;92.37;99331.56;104558;1295;23038;-33
2022/12/30 06:58:58;;;;;;;2.40;1.30;;;;;;;6.80;92.31;99331.89;104621;1294;23169;-30
2022/12/30 07:01:23;;;;;;;3.20;1.50;;;;;;;6.85;92.07;99334.46;104556;1289;23034;-33
2022/12/30 07:03:49;;;;;;;5.90;2.30;;;;;;;6.84;91.58;99339.82;104512;1298;22656;-30
2022/12/30 07:06:15;;;;;;;4.90;0.90;;;;;;;6.58;92.89;99342.59;104510;1294;22825;-30
2022/12/30 07:08:41;;;;;;;3.10;1.70;;;;;;;6.52;93.39;99348.25;104460;1295;23159;-30
2022/12/30 07:11:07;;;;;;;4.70;2.60;;;;;;;6.68;92.85;99346.45;104533;1304;23313;-30
2022/12/30 07:13:33;;;;;;;4.30;2.70;;;;;;;6.73;92.27;99350.88;104521;1305;24299;-33
2022/12/30 07:15:59;;;;;;;5.10;2.00;;;;;;;6.64;92.38;99361.35;104602;1305;22662;-33
2022/12/30 07:18:25;;;;;;;4.30;2.90;;;;;;;6.49;93.10;99367.30;104560;1295;22619;-34
2022/12/30 07:20:51;;;;;;;4.60;2.50;;;;;;;6.41;93.74;99372.96;104563;1294;22812;-30
2022/12/30 07:23:17;;;;;;;6.90;2.00;;;;;;;6.37;94.19;99375.57;104518;1295;23056;-34
2022/12/30 07:25:45;;;;;;;3.70;2.20;;;;;;;6.14;95.12;99379.71;104411;1305;22627;-34
2022/12/30 07:28:11;;;;;;;5.10;2.80;;;;;;;5.97;95.97;99384.88;104579;1295;22579;-34
2022/12/30 07:30:37;;;;;;;7.20;2.70;;;;;;;5.84;97.10;99387.80;104570;1294;23038;-30
2022/12/30 07:33:03;;;;;;;5.00;2.60;;;;;;;5.70;97.77;99391.52;104514;1304;22680;-34
2022/12/30 07:35:29;;;;;;;12.40;6.30;;;;;;;5.70;98.09;99400.63;104616;1295;22663;-31
2022/12/30 07:37:54;;;;;;;6.60;3.70;;;;;;;5.67;98.21;99401.67;104481;1304;23020;-30
2022/12/30 07:40:20;;;;;;;7.40;5.20;;;;;;;5.66;98.40;99401.11;104493;1295;22672;-29
2022/12/30 07:42:46;;;;;;;9.20;5.40;;;;;;;5.64;98.64;99405.39;104350;1304;22634;-30
2022/12/30 07:45:12;;;;;;;6.30;4.30;;;;;;;5.67;98.40;99409.70;104506;1295;22672;-30
2022/12/30 07:47:38;;;;;;;4.00;3.40;;;;;;;5.69;98.40;99408.96;104563;1304;22957;-30
2022/12/30 07:50:05;;;;;;;3.20;2.20;;;;;;;5.65;98.34;99410.40;104467;1304;22835;-32
2022/12/30 07:52:31;;;;;;;3.40;2.20;;;;;;;5.62;98.81;99413.61;104622;1294;24226;-31
2022/12/30 07:54:57;;;;;;;4.20;2.80;;;;;;;5.64;98.71;99419.25;104591;1304;22663;-29
2022/12/30 07:57:22;;;;;;;3.90;2.60;;;;;;;5.64;98.77;99419.92;104514;1304;24288;-34
2022/12/30 07:59:49;;;;;;;3.00;2.20;;;;;;;5.64;98.76;99424.02;104500;1294;22637;-30
2022/12/30 08:02:14;;;;;;;2.70;1.30;;;;;;;5.64;98.77;99427.04;104432;1295;22667;-31
2022/12/30 08:04:40;;;;;;;8.20;3.00;;;;;;;5.66;98.96;99434.17;104542;1302;24337;-29
2022/12/30 08:07:06;;;;;;;5.60;2.20;;;;;;;5.66;98.91;99434.17;104553;1295;22816;-30
2022/12/30 08:09:32;;;;;;;9.00;2.60;;;;;;;5.64;98.99;99435.74;104571;1305;22779;-31
2022/12/30 08:11:57;;;;;;;6.70;3.60;;;;;;;5.65;99.11;99444.16;104543;1295;24304;-30
2022/12/30 08:14:24;;;;;;;5.00;2.60;;;;;;;5.70;98.91;99449.81;104427;1305;22564;-29
2022/12/30 08:16:50;;;;;;;19.30;2.90;;;;;;;5.73;98.93;99452.73;104671;1295;25392;-29
2022/12/30 08:19:16;;;;;;;3.50;2.50;;;;;;;5.75;99.02;99456.07;104553;1301;22672;-33
2022/12/30 08:21:42;;;;;;;3.80;2.50;;;;;;;5.85;99.08;99456.55;104537;1295;23035;-30
2022/12/30 08:24:08;;;;;;;8.20;3.40;;;;;;;5.86;98.99;99457.00;104636;1295;22559;-34
2022/12/30 08:26:34;;;;;;;5.40;3.20;;;;;;;5.85;98.88;99465.08;104608;1295;23033;-33
2022/12/30 08:29:00;;;;;;;5.70;3.40;;;;;;;5.81;98.92;99466.08;104505;1305;22631;-29
2022/12/30 08:31:27;;;;;;;3.90;1.30;;;;;;;5.70;99.36;99471.48;104557;1295;24264;-34
2022/12/30 08:33:53;;;;;;;5.30;3.10;;;;;;;5.72;99.58;99478.24;104496;1302;22667;-30
2022/12/30 08:36:21;;;;;;;7.90;2.60;;;;;;;5.68;99.86;99478.67;104555;1304;22660;-33
2022/12/30 08:38:49;;;;;;;5.70;3.00;;;;;;;5.63;99.98;99487.30;104655;1295;26520;-34
2022/12/30 08:41:20;;;;;;;5.00;3.30;;;;;;;5.56;100.00;99490.73;104568;1285;22653;-35
2022/12/30 08:43:47;;;;;;;5.50;3.00;;;;;;;5.52;100.00;99492.02;104466;1304;24136;-31
2022/12/30 08:46:13;;;;;;;7.70;4.00;;;;;;;5.44;100.00;99496.85;104455;1295;22653;-31
2022/12/30 08:48:38;;;;;;;5.30;3.10;;;;;;;5.42;100.00;99502.88;104564;1297;22562;-31
2022/12/30 08:51:05;;;;;;;8.40;5.00;;;;;;;5.42;100.00;99506.80;104559;1295;22542;-30
2022/12/30 08:53:30;;;;;;;4.80;3.20;;;;;;;5.63;100.00;99504.81;104574;1295;22671;-34
2022/12/30 08:56:04;;;;;;;5.70;3.00;;;;;;;5.87;100.00;99505.44;104638;1305;22559;-31
2022/12/30 08:58:30;;;;;;;;;;;;;;;6.21;100.00;99512.30;104533;1305;24279;-31
2022/12/30 09:00:56;;;;;;;7.50;3.50;;;;;;;6.42;100.00;99514.79;104557;1292;22517;-33
2022/12/30 09:03:22;;;;;;;8.50;3.20;;;;;;;6.70;100.00;99520.31;104557;1294;22682;-32
2022/12/30 09:05:51;;;;;;;9.70;2.80;;;;;;;6.93;99.01;99519.14;104324;1298;24073;-35
2022/12/30 09:08:17;;;;;;;4.80;2.70;;;;;;;7.17;97.29;99516.59;104518;1298;23149;-35
2022/12/30 09:10:43;;;;;;;3.80;3.10;;;;;;;7.35;95.82;99518.95;104374;1301;23025;-31
2022/12/30 09:13:09;;;;;;;5.20;3.00;;;;;;;7.45;94.39;99523.48;104422;1295;23072;-31
2022/12/30 09:15:35;;;;;;;5.80;2.70;;;;;;;7.67;93.15;99525.95;104423;1305;22663;-34
2022/12/30 09:18:00;;;;;;;5.20;3.30;;;;;;;7.88;91.84;99522.64;104589;1305;22575;-34
2022/12/30 09:20:27;;;;;;;4.20;1.80;;;;;;;7.94;91.47;99525.98;104331;1305;22564;-31
2022/12/30 09:22:53;;;;;;;4.80;2.90;;;;;;;8.03;90.77;99529.56;104513;1295;22562;-31
2022/12/30 09:25:18;;;;;;;4.50;1.80;;;;;;;8.24;90.12;99542.02;104577;1296;22549;-34
2022/12/30 09:27:44;;;;;;;7.40;3.30;;;;;;;8.38;89.02;99544.52;104307;1289;22673;-34
2022/12/30 09:30:10;;;;;;;5.30;2.80;;;;;;;8.41;88.41;99544.39;104543;1286;22776;-34
2022/12/30 09:32:36;;;;;;;5.50;1.60;;;;;;;8.39;88.43;99549.39;104550;1295;22701;-31
2022/12/30 09:35:02;;;;;;;6.00;3.30;;;;;;;8.46;87.65;99553.06;104542;1285;22562;-35
2022/12/30 09:37:28;;;;;;;3.90;2.30;;;;;;;8.77;86.48;99558.54;104563;1295;22809;-30
2022/12/30 09:39:54;;;;;;;2.10;1.60;;;;;;;8.78;86.37;99558.48;104547;1305;22662;-37
2022/12/30 09:45:10;;;;;;;4.40;2.50;;;;;;;8.96;85.12;99558.92;104367;1293;22570;-31
2022/12/30 09:47:40;;;;;;;7.00;1.80;;;;;;;9.01;84.78;99559.80;104542;1295;22563;-31
2022/12/30 09:50:21;;;;;;;3.50;2.20;;;;;;;8.91;85.50;99560.10;104511;1292;22556;-34
2022/12/30 09:53:01;;;;;;;2.40;1.70;;;;;;;8.94;84.88;99556.02;104487;1304;22792;-35
2022/12/30 09:55:28;;;;;;;4.70;2.60;;;;;;;9.23;83.69;99551.16;104578;1304;22646;-34
2022/12/30 09:57:56;;;;;;;5.20;2.30;;;;;;;9.28;82.90;99548.55;104600;1295;22801;-30
2022/12/30 10:00:23;;;;;;;5.00;2.20;;;;;;;9.22;83.50;99552.45;104550;1295;24505;-31
2022/12/30 10:03:20;;;;;;;3.20;2.10;;;;;;;9.62;82.42;99552.89;104588;1304;22848;-31
2022/12/30 10:06:10;;;;;;;2.80;2.00;;;;;;;9.80;81.27;99551.89;104542;1304;22782;-31
2022/12/30 10:08:55;;;;;;;5.50;1.60;;;;;;;10.12;78.90;99548.64;104523;1302;22983;-34
2022/12/30 10:11:42;;;;;;;6.10;3.30;;;;;;;10.23;78.25;99545.56;104458;1295;22677;-31
2022/12/30 10:14:14;;;;;;;2.50;1.40;;;;;;;10.22;78.15;99549.43;104471;1304;23111;-35
2022/12/30 10:17:08;;;;;;;3.30;1.90;;;;;;;10.26;77.16;99543.38;104467;1295;25262;-31
2022/12/30 10:19:57;;;;;;;14.10;3.00;;;;;;;10.50;75.57;99542.59;104595;1304;25254;-35
2022/12/30 10:22:36;;;;;;;4.40;1.70;;;;;;;10.38;75.95;99542.39;104572;1295;22566;-35
2022/12/30 10:25:25;;;;;;;7.50;1.70;;;;;;;9.92;77.78;99543.45;104207;1304;24226;-35
2022/12/30 10:27:54;;;;;;;4.20;1.10;;;;;;;10.41;76.95;99540.17;104553;1295;22814;-35
2022/12/30 10:30:21;;;;;;;2.10;1.10;;;;;;;10.39;75.50;99545.41;104580;1296;23025;-35
2022/12/30 10:32:53;;;;;;;8.00;1.30;;;;;;;10.51;74.78;99547.73;104492;1304;22716;-32
2022/12/30 10:35:22;;;;;;;2.30;1.50;;;;;;;10.64;74.72;99553.46;104606;1295;22654;-31
2022/12/30 10:37:54;;;;;;;2.90;1.50;;;;;;;10.85;73.99;99550.25;104579;1293;22657;-31
2022/12/30 10:40:20;;;;;;;9.80;3.00;;;;;;;10.96;71.80;99550.87;104638;1293;24221;-35
2022/12/30 10:42:57;;;;;;;3.10;1.50;;;;;;;11.05;70.82;99551.55;104568;1301;22825;-36
2022/12/30 10:45:45;;;;;;;4.10;1.50;;;;;;;10.66;71.50;99550.05;104554;1295;22629;-32
2022/12/30 10:48:43;;;;;;;1.20;0.50;;;;;;;10.56;72.96;99544.49;104522;1304;22944;-36
2022/12/30 10:51:08;;;;;;;2.90;1.20;;;;;;;10.56;71.73;99540.91;104533;1286;22573;-36
2022/12/30 10:53:34;;;;;;;4.10;1.30;;;;;;;10.78;71.36;99536.85;104520;1304;22624;-32
2022/12/30 10:56:02;;;;;;;7.70;1.90;;;;;;;11.02;71.84;99536.79;104461;1295;23025;-36
2022/12/30 10:58:46;;;;;;;3.40;2.20;;;;;;;10.94;72.56;99536.63;104574;1294;25440;-34
2022/12/30 11:01:19;;;;;;;2.10;0.90;;;;;;;11.20;70.66;99534.71;104554;1301;24225;-34
2022/12/30 11:03:54;;;;;;;3.90;1.10;;;;;;;11.62;66.07;99535.18;104541;1304;23923;-32
2022/12/30 11:46:01;;;;;;;3.00;0.90;;;;;;;11.25;65.37;99535.39;104303;1296;557727;-30
2022/12/30 11:48:32;;;;;;;2.40;1.10;;;;;;;11.38;64.50;99527.16;104008;1303;270893;-36
2022/12/30 11:50:58;;;;;;;3.70;1.10;;;;;;;11.05;65.21;99523.77;104546;1304;24311;-30
2022/12/30 11:53:26;;;;;;;2.10;1.00;;;;;;;11.49;64.53;99517.66;104535;1294;23242;-31
2022/12/30 11:55:52;;;;;;;1.90;1.00;;;;;;;11.64;64.32;99515.77;104576;1290;25267;-34
2022/12/30 11:58:18;;;;;;;3.80;1.30;;;;;;;11.92;62.86;99508.88;104535;1294;24256;-34
2022/12/30 12:00:44;;;;;;;4.60;1.80;;;;;;;12.10;62.92;99509.91;104446;1294;22570;-32
2022/12/30 12:03:14;;;;;;;3.40;1.40;;;;;;;11.91;61.30;99502.86;104633;1294;23477;-32
2022/12/30 12:05:42;;;;;;;13.30;1.50;;;;;;;11.73;62.11;99508.66;104589;1290;23031;-32
2022/12/30 12:08:22;;;;;;;3.20;1.30;;;;;;;12.24;62.41;99499.52;104597;1301;24420;-35
2022/12/30 12:10:56;;;;;;;1.80;0.90;;;;;;;12.40;60.74;99498.20;104499;1304;25498;-32
2022/12/30 12:13:28;;;;;;;2.60;0.80;;;;;;;12.25;58.03;99493.88;104551;1281;24268;-31
2022/12/30 12:15:55;;;;;;;3.90;1.20;;;;;;;12.40;57.35;99498.95;104449;1294;22587;-35
2022/12/30 12:18:26;;;;;;;2.70;1.30;;;;;;;12.53;56.61;99503.05;104585;1294;22677;-36
2022/12/30 12:21:10;;;;;;;4.80;0.90;;;;;;;12.67;57.21;99500.27;104575;1294;24255;-31
2022/12/30 12:23:45;;;;;;;1.50;0.80;;;;;;;12.71;57.56;99498.86;104540;1294;24268;-34
2022/12/30 12:26:31;;;;;;;2.40;1.30;;;;;;;12.97;57.61;99493.70;104564;1292;22570;-36
2022/12/30 12:28:57;;;;;;;2.10;0.80;;;;;;;13.20;56.22;99480.89;104528;1298;22555;-32
2022/12/30 12:31:46;;;;;;;2.90;1.00;;;;;;;13.14;55.51;99477.51;104536;1304;23155;-32
2022/12/30 12:34:38;;;;;;;3.40;1.20;;;;;;;12.53;56.86;99477.33;104443;1304;23124;-35
2022/12/30 12:37:24;;;;;;;2.80;1.40;;;;;;;12.81;56.87;99470.13;104547;1304;22815;-32
2022/12/30 12:40:08;;;;;;;5.80;0.90;;;;;;;12.78;57.51;99473.44;104532;1292;22645;-34
2022/12/30 12:43:06;;;;;;;2.10;1.20;;;;;;;12.88;56.52;99479.94;104349;1304;22799;-31
2022/12/30 12:45:51;;;;;;;3.30;1.10;;;;;;;12.48;57.92;99486.64;104548;1304;24214;-35
2022/12/30 12:48:31;;;;;;;2.90;1.10;;;;;;;12.77;55.63;99486.64;104511;1300;22565;-30
2022/12/30 12:51:21;;;;;;;4.30;1.40;;;;;;;12.31;58.12;99482.31;104547;1294;24328;-30
2022/12/30 12:54:03;;;;;;;3.90;1.20;;;;;;;12.30;57.51;99484.76;104282;1303;24338;-30
2022/12/30 12:56:40;;;;;;;3.60;1.00;;;;;;;11.99;58.14;99480.52;104499;1304;22667;-31
2022/12/30 12:59:30;;;;;;;3.90;1.30;;;;;;;12.15;58.72;99481.92;104357;1303;22799;-34
2022/12/30 13:02:19;;;;;;;2.90;1.40;;;;;;;12.38;58.04;99479.76;104526;1294;24460;-35
2022/12/30 13:04:50;;;;;;;2.50;1.10;;;;;;;12.32;59.51;99475.98;104451;1297;24861;-30
2022/12/30 13:07:33;;;;;;;3.90;2.00;;;;;;;12.33;60.01;99477.88;104498;1293;24300;-32
2022/12/30 13:10:21;;;;;;;4.60;2.00;;;;;;;12.28;59.94;99473.58;104535;1297;23915;-34
2022/12/30 13:13:08;;;;;;;6.40;1.40;;;;;;;12.09;59.88;99475.41;104538;1289;24368;-30
2022/12/30 13:15:37;;;;;;;3.40;1.90;;;;;;;11.63;61.19;99481.80;104498;1294;23085;-34
2022/12/30 13:18:05;;;;;;;1.40;0.90;;;;;;;11.37;63.29;99485.74;104501;1304;25602;-34
2022/12/30 13:20:45;;;;;;;10.80;2.20;;;;;;;11.43;63.89;99486.15;104565;1290;23261;-31
2022/12/30 13:23:11;;;;;;;1.20;1.00;;;;;;;11.61;62.90;99484.15;104509;1293;23055;-30
2022/12/30 13:25:39;;;;;;;2.60;1.20;;;;;;;11.41;63.96;99485.55;104538;1300;25450;-30
2022/12/30 13:28:04;;;;;;;4.30;1.30;;;;;;;11.47;64.10;99484.95;104579;1294;22618;-32
2022/12/30 13:30:39;;;;;;;4.10;1.50;;;;;;;11.52;64.34;99485.06;104501;1293;24295;-36
2022/12/30 13:33:23;;;;;;;2.40;1.20;;;;;;;11.74;64.17;99482.70;104508;1294;23263;-32
2022/12/30 13:36:01;;;;;;;;;;;;;;;11.85;64.14;99487.56;104639;1293;23043;-36
2022/12/30 13:38:50;;;;;;;7.60;2.60;;;;;;;11.74;63.72;99491.86;104449;1304;24245;-35
2022/12/30 13:41:29;;;;;;;5.10;1.40;;;;;;;11.37;63.93;99491.49;104460;1294;22663;-36
2022/12/30 13:43:57;;;;;;;2.80;0.80;;;;;;;11.08;64.04;99491.91;104490;1294;22663;-32
2022/12/30 13:46:25;;;;;;;4.00;1.10;;;;;;;10.91;65.23;99493.86;104464;1304;23036;-32
2022/12/30 13:48:56;;;;;;;6.30;1.90;;;;;;;10.66;66.47;99494.88;104477;1289;24249;-32